sensor_id;sensor_type;location;lat;lon;timestamp;temperature;humidity
9919;DHT22;4998;51.024;13.828;2023-07-31T00:01:59;20.50;79.30
9919;DHT22;4998;51.024;13.828;2023-07-31T00:04:27;20.40;79.10
9919;DHT22;4998;51.024;13.828;2023-07-31T00:06:54;20.50;79.10
9919;DHT22;4998;51.024;13.828;2023-07-31T00:09:21;20.40;78.90
9919;DHT22;4998;51.024;13.828;2023-07-31T00:11:48;20.40;78.90
9919;DHT22;4998;51.024;13.828;2023-07-31T00:14:15;20.40;78.90
9919;DHT22;4998;51.024;13.828;2023-07-31T00:16:42;20.40;78.90
9919;DHT22;4998;51.024;13.828;2023-07-31T00:19:09;20.30;78.80
9919;DHT22;4998;51.024;13.828;2023-07-31T00:21:37;20.30;78.80
9919;DHT22;4998;51.024;13.828;2023-07-31T00:24:05;20.30;78.90
9919;DHT22;4998;51.024;13.828;2023-07-31T00:26:32;20.30;78.90
9919;DHT22;4998;51.024;13.828;2023-07-31T00:28:59;20.30;79.00
9919;DHT22;4998;51.024;13.828;2023-07-31T00:31:26;20.20;78.70
9919;DHT22;4998;51.024;13.828;2023-07-31T00:33:53;20.30;79.00
9919;DHT22;4998;51.024;13.828;2023-07-31T00:36:20;20.30;79.00
9919;DHT22;4998;51.024;13.828;2023-07-31T00:38:48;20.20;78.80
9919;DHT22;4998;51.024;13.828;2023-07-31T00:41:15;20.20;78.80
9919;DHT22;4998;51.024;13.828;2023-07-31T00:43:42;20.20;78.60
9919;DHT22;4998;51.024;13.828;2023-07-31T00:46:10;20.20;78.60
9919;DHT22;4998;51.024;13.828;2023-07-31T00:48:37;20.20;78.50
9919;DHT22;4998;51.024;13.828;2023-07-31T00:51:05;20.20;78.40
9919;DHT22;4998;51.024;13.828;2023-07-31T00:53:32;20.20;78.20
9919;DHT22;4998;51.024;13.828;2023-07-31T00:56:00;20.20;78.20
9919;DHT22;4998;51.024;13.828;2023-07-31T00:58:27;20.20;77.90
9919;DHT22;4998;51.024;13.828;2023-07-31T01:00:54;20.20;77.80
9919;DHT22;4998;51.024;13.828;2023-07-31T01:03:22;20.30;77.80
9919;DHT22;4998;51.024;13.828;2023-07-31T01:05:56;20.30;77.30
9919;DHT22;4998;51.024;13.828;2023-07-31T01:08:34;20.30;77.10
9919;DHT22;4998;51.024;13.828;2023-07-31T01:11:10;20.30;76.80
9919;DHT22;4998;51.024;13.828;2023-07-31T01:13:38;20.30;76.70
9919;DHT22;4998;51.024;13.828;2023-07-31T01:16:05;20.20;76.70
9919;DHT22;4998;51.024;13.828;2023-07-31T01:18:33;20.30;76.60
9919;DHT22;4998;51.024;13.828;2023-07-31T01:21:06;20.30;76.10
9919;DHT22;4998;51.024;13.828;2023-07-31T01:23:51;20.30;75.70
9919;DHT22;4998;51.024;13.828;2023-07-31T01:26:28;20.30;75.70
9919;DHT22;4998;51.024;13.828;2023-07-31T01:29:01;20.40;75.60
9919;DHT22;4998;51.024;13.828;2023-07-31T01:31:32;20.40;76.40
9919;DHT22;4998;51.024;13.828;2023-07-31T01:34:01;20.40;75.10
9919;DHT22;4998;51.024;13.828;2023-07-31T01:36:28;20.40;75.10
9919;DHT22;4998;51.024;13.828;2023-07-31T01:38:58;20.50;75.00
9919;DHT22;4998;51.024;13.828;2023-07-31T01:41:27;20.50;74.60
9919;DHT22;4998;51.024;13.828;2023-07-31T01:43:54;20.50;74.50
9919;DHT22;4998;51.024;13.828;2023-07-31T01:46:21;20.50;74.40
9919;DHT22;4998;51.024;13.828;2023-07-31T01:48:48;20.50;74.20
9919;DHT22;4998;51.024;13.828;2023-07-31T01:51:15;20.60;74.10
9919;DHT22;4998;51.024;13.828;2023-07-31T01:53:41;20.60;74.10
9919;DHT22;4998;51.024;13.828;2023-07-31T01:56:09;20.60;73.90
9919;DHT22;4998;51.024;13.828;2023-07-31T01:58:37;20.70;73.70
9919;DHT22;4998;51.024;13.828;2023-07-31T02:01:04;20.70;73.50
9919;DHT22;4998;51.024;13.828;2023-07-31T02:03:31;20.70;73.50
9919;DHT22;4998;51.024;13.828;2023-07-31T02:05:58;20.70;73.50
9919;DHT22;4998;51.024;13.828;2023-07-31T02:08:25;20.70;73.30
9919;DHT22;4998;51.024;13.828;2023-07-31T02:10:53;20.70;73.20
9919;DHT22;4998;51.024;13.828;2023-07-31T02:13:20;20.70;73.10
9919;DHT22;4998;51.024;13.828;2023-07-31T02:15:49;20.70;73.20
9919;DHT22;4998;51.024;13.828;2023-07-31T02:18:16;20.70;72.80
9919;DHT22;4998;51.024;13.828;2023-07-31T02:20:43;20.70;72.60
9919;DHT22;4998;51.024;13.828;2023-07-31T02:23:11;20.80;72.90
9919;DHT22;4998;51.024;13.828;2023-07-31T02:25:38;20.80;72.90
9919;DHT22;4998;51.024;13.828;2023-07-31T02:28:06;20.80;72.80
9919;DHT22;4998;51.024;13.828;2023-07-31T02:30:33;20.80;73.00
9919;DHT22;4998;51.024;13.828;2023-07-31T02:33:01;20.80;72.90
9919;DHT22;4998;51.024;13.828;2023-07-31T02:35:28;20.80;72.80
9919;DHT22;4998;51.024;13.828;2023-07-31T02:37:55;20.90;72.90
9919;DHT22;4998;51.024;13.828;2023-07-31T02:40:22;20.90;72.80
9919;DHT22;4998;51.024;13.828;2023-07-31T02:42:50;20.90;72.90
9919;DHT22;4998;51.024;13.828;2023-07-31T02:45:17;20.90;72.90
9919;DHT22;4998;51.024;13.828;2023-07-31T02:47:44;20.90;72.90
9919;DHT22;4998;51.024;13.828;2023-07-31T02:50:12;20.90;72.70
9919;DHT22;4998;51.024;13.828;2023-07-31T02:52:39;20.90;72.60
9919;DHT22;4998;51.024;13.828;2023-07-31T02:55:06;20.90;72.50
9919;DHT22;4998;51.024;13.828;2023-07-31T02:57:33;21.00;72.60
9919;DHT22;4998;51.024;13.828;2023-07-31T03:00:00;21.00;72.30
9919;DHT22;4998;51.024;13.828;2023-07-31T03:02:31;21.00;72.20
9919;DHT22;4998;51.024;13.828;2023-07-31T03:04:58;21.00;72.10
9919;DHT22;4998;51.024;13.828;2023-07-31T03:07:26;21.00;72.00
9919;DHT22;4998;51.024;13.828;2023-07-31T03:09:54;21.00;72.30
9919;DHT22;4998;51.024;13.828;2023-07-31T03:12:21;21.00;72.30
9919;DHT22;4998;51.024;13.828;2023-07-31T03:14:48;21.00;72.20
9919;DHT22;4998;51.024;13.828;2023-07-31T03:17:15;21.00;72.00
9919;DHT22;4998;51.024;13.828;2023-07-31T03:19:42;21.10;71.90
9919;DHT22;4998;51.024;13.828;2023-07-31T03:22:09;21.10;71.70
9919;DHT22;4998;51.024;13.828;2023-07-31T03:24:37;21.10;71.20
9919;DHT22;4998;51.024;13.828;2023-07-31T03:27:05;21.10;71.20
9919;DHT22;4998;51.024;13.828;2023-07-31T03:29:32;21.00;70.80
9919;DHT22;4998;51.024;13.828;2023-07-31T03:31:59;21.10;70.50
9919;DHT22;4998;51.024;13.828;2023-07-31T03:34:26;21.10;70.20
9919;DHT22;4998;51.024;13.828;2023-07-31T03:36:53;21.10;70.00
9919;DHT22;4998;51.024;13.828;2023-07-31T03:39:20;21.10;69.80
9919;DHT22;4998;51.024;13.828;2023-07-31T03:41:49;21.20;70.80
9919;DHT22;4998;51.024;13.828;2023-07-31T03:44:16;21.20;69.70
9919;DHT22;4998;51.024;13.828;2023-07-31T03:46:43;21.20;69.70
9919;DHT22;4998;51.024;13.828;2023-07-31T03:49:10;21.20;69.50
9919;DHT22;4998;51.024;13.828;2023-07-31T03:51:37;21.20;69.70
9919;DHT22;4998;51.024;13.828;2023-07-31T03:54:04;21.20;69.90
9919;DHT22;4998;51.024;13.828;2023-07-31T03:56:31;21.20;70.20
9919;DHT22;4998;51.024;13.828;2023-07-31T03:58:59;21.20;70.80
9919;DHT22;4998;51.024;13.828;2023-07-31T04:01:26;21.20;71.30
9919;DHT22;4998;51.024;13.828;2023-07-31T04:03:53;21.20;71.80
9919;DHT22;4998;51.024;13.828;2023-07-31T04:06:20;21.20;72.20
9919;DHT22;4998;51.024;13.828;2023-07-31T04:08:47;21.20;72.50
9919;DHT22;4998;51.024;13.828;2023-07-31T04:11:14;21.10;73.50
9919;DHT22;4998;51.024;13.828;2023-07-31T04:13:41;21.20;73.10
9919;DHT22;4998;51.024;13.828;2023-07-31T04:16:10;21.20;73.40
9919;DHT22;4998;51.024;13.828;2023-07-31T04:18:37;21.10;73.60
9919;DHT22;4998;51.024;13.828;2023-07-31T04:21:04;21.10;73.70
9919;DHT22;4998;51.024;13.828;2023-07-31T04:23:31;21.10;73.80
9919;DHT22;4998;51.024;13.828;2023-07-31T04:25:58;21.10;74.20
9919;DHT22;4998;51.024;13.828;2023-07-31T04:28:25;21.10;74.50
9919;DHT22;4998;51.024;13.828;2023-07-31T04:30:52;21.10;74.60
9919;DHT22;4998;51.024;13.828;2023-07-31T04:33:21;21.10;74.90
9919;DHT22;4998;51.024;13.828;2023-07-31T04:35:51;21.10;75.70
9919;DHT22;4998;51.024;13.828;2023-07-31T04:38:19;21.10;76.40
9919;DHT22;4998;51.024;13.828;2023-07-31T04:40:46;21.10;76.40
9919;DHT22;4998;51.024;13.828;2023-07-31T04:43:13;21.00;76.70
9919;DHT22;4998;51.024;13.828;2023-07-31T04:45:42;21.00;77.00
9919;DHT22;4998;51.024;13.828;2023-07-31T04:48:11;21.00;77.70
9919;DHT22;4998;51.024;13.828;2023-07-31T04:50:40;21.00;77.80
9919;DHT22;4998;51.024;13.828;2023-07-31T04:53:07;21.00;78.40
9919;DHT22;4998;51.024;13.828;2023-07-31T04:55:34;21.00;78.60
9919;DHT22;4998;51.024;13.828;2023-07-31T04:58:01;21.00;78.80
9919;DHT22;4998;51.024;13.828;2023-07-31T05:00:28;21.00;78.90
9919;DHT22;4998;51.024;13.828;2023-07-31T05:02:55;21.10;79.40
9919;DHT22;4998;51.024;13.828;2023-07-31T05:05:22;21.10;79.30
9919;DHT22;4998;51.024;13.828;2023-07-31T05:07:50;21.10;79.80
9919;DHT22;4998;51.024;13.828;2023-07-31T05:10:17;21.10;80.30
9919;DHT22;4998;51.024;13.828;2023-07-31T05:12:44;21.10;80.30
9919;DHT22;4998;51.024;13.828;2023-07-31T05:15:11;21.10;80.80
9919;DHT22;4998;51.024;13.828;2023-07-31T05:17:38;21.10;80.80
9919;DHT22;4998;51.024;13.828;2023-07-31T05:20:07;21.10;80.70
9919;DHT22;4998;51.024;13.828;2023-07-31T05:22:34;21.10;80.90
9919;DHT22;4998;51.024;13.828;2023-07-31T05:25:03;21.10;81.10
9919;DHT22;4998;51.024;13.828;2023-07-31T05:27:30;21.10;81.70
9919;DHT22;4998;51.024;13.828;2023-07-31T05:29:58;21.10;81.60
9919;DHT22;4998;51.024;13.828;2023-07-31T05:32:25;21.10;81.80
9919;DHT22;4998;51.024;13.828;2023-07-31T05:34:52;21.10;81.80
9919;DHT22;4998;51.024;13.828;2023-07-31T05:37:19;21.10;81.70
9919;DHT22;4998;51.024;13.828;2023-07-31T05:39:46;21.10;81.50
9919;DHT22;4998;51.024;13.828;2023-07-31T05:42:14;21.10;81.70
9919;DHT22;4998;51.024;13.828;2023-07-31T05:44:41;21.10;81.90
9919;DHT22;4998;51.024;13.828;2023-07-31T05:47:09;21.10;82.30
9919;DHT22;4998;51.024;13.828;2023-07-31T05:49:36;21.20;82.10
9919;DHT22;4998;51.024;13.828;2023-07-31T05:52:04;21.20;82.20
9919;DHT22;4998;51.024;13.828;2023-07-31T05:54:31;21.20;82.30
9919;DHT22;4998;51.024;13.828;2023-07-31T05:56:58;21.20;82.30
9919;DHT22;4998;51.024;13.828;2023-07-31T05:59:27;21.20;82.20
9919;DHT22;4998;51.024;13.828;2023-07-31T06:01:54;21.20;82.60
9919;DHT22;4998;51.024;13.828;2023-07-31T06:04:21;21.20;82.60
9919;DHT22;4998;51.024;13.828;2023-07-31T06:06:51;21.30;82.30
9919;DHT22;4998;51.024;13.828;2023-07-31T06:09:18;21.30;82.40
9919;DHT22;4998;51.024;13.828;2023-07-31T06:11:45;21.30;82.40
9919;DHT22;4998;51.024;13.828;2023-07-31T06:14:13;21.30;82.70
9919;DHT22;4998;51.024;13.828;2023-07-31T06:16:41;21.30;82.60
9919;DHT22;4998;51.024;13.828;2023-07-31T06:19:09;21.40;82.60
9919;DHT22;4998;51.024;13.828;2023-07-31T06:21:36;21.40;82.10
9919;DHT22;4998;51.024;13.828;2023-07-31T06:24:04;21.40;82.20
9919;DHT22;4998;51.024;13.828;2023-07-31T06:26:31;21.40;82.30
9919;DHT22;4998;51.024;13.828;2023-07-31T06:28:58;21.40;82.00
9919;DHT22;4998;51.024;13.828;2023-07-31T06:31:26;21.40;82.00
9919;DHT22;4998;51.024;13.828;2023-07-31T06:33:54;21.40;82.00
9919;DHT22;4998;51.024;13.828;2023-07-31T06:36:21;21.50;81.90
9919;DHT22;4998;51.024;13.828;2023-07-31T06:38:48;21.50;81.90
9919;DHT22;4998;51.024;13.828;2023-07-31T06:41:15;21.50;81.50
9919;DHT22;4998;51.024;13.828;2023-07-31T06:43:42;21.50;81.50
9919;DHT22;4998;51.024;13.828;2023-07-31T06:46:09;21.60;81.90
9919;DHT22;4998;51.024;13.828;2023-07-31T06:48:36;21.60;82.00
9919;DHT22;4998;51.024;13.828;2023-07-31T06:51:05;21.60;81.80
9919;DHT22;4998;51.024;13.828;2023-07-31T06:53:32;21.60;81.40
9919;DHT22;4998;51.024;13.828;2023-07-31T06:55:59;21.60;81.40
9919;DHT22;4998;51.024;13.828;2023-07-31T06:58:26;21.70;81.30
9919;DHT22;4998;51.024;13.828;2023-07-31T07:00:53;21.70;81.40
9919;DHT22;4998;51.024;13.828;2023-07-31T07:03:20;21.70;81.70
9919;DHT22;4998;51.024;13.828;2023-07-31T07:05:47;21.80;81.80
9919;DHT22;4998;51.024;13.828;2023-07-31T07:08:15;21.80;81.60
9919;DHT22;4998;51.024;13.828;2023-07-31T07:10:42;21.80;81.20
9919;DHT22;4998;51.024;13.828;2023-07-31T07:13:09;21.90;81.30
9919;DHT22;4998;51.024;13.828;2023-07-31T07:15:38;21.90;80.60
9919;DHT22;4998;51.024;13.828;2023-07-31T07:18:05;21.90;80.60
9919;DHT22;4998;51.024;13.828;2023-07-31T07:20:32;22.00;80.70
9919;DHT22;4998;51.024;13.828;2023-07-31T07:22:59;22.00;80.60
9919;DHT22;4998;51.024;13.828;2023-07-31T07:25:27;22.00;80.60
9919;DHT22;4998;51.024;13.828;2023-07-31T07:27:54;22.10;80.50
9919;DHT22;4998;51.024;13.828;2023-07-31T07:30:21;22.10;80.60
9919;DHT22;4998;51.024;13.828;2023-07-31T07:32:50;22.10;80.10
9919;DHT22;4998;51.024;13.828;2023-07-31T07:35:17;22.20;79.90
9919;DHT22;4998;51.024;13.828;2023-07-31T07:37:44;22.20;79.90
9919;DHT22;4998;51.024;13.828;2023-07-31T07:40:11;22.30;79.90
9919;DHT22;4998;51.024;13.828;2023-07-31T07:42:40;22.30;79.90
9919;DHT22;4998;51.024;13.828;2023-07-31T07:45:08;22.40;79.90
9919;DHT22;4998;51.024;13.828;2023-07-31T07:47:35;22.40;79.90
9919;DHT22;4998;51.024;13.828;2023-07-31T07:50:02;22.50;79.60
9919;DHT22;4998;51.024;13.828;2023-07-31T07:52:29;22.50;79.60
9919;DHT22;4998;51.024;13.828;2023-07-31T07:54:56;22.60;79.50
9919;DHT22;4998;51.024;13.828;2023-07-31T07:57:23;22.70;79.20
9919;DHT22;4998;51.024;13.828;2023-07-31T07:59:51;22.70;78.70
9919;DHT22;4998;51.024;13.828;2023-07-31T08:02:18;22.70;78.00
9919;DHT22;4998;51.024;13.828;2023-07-31T08:04:45;22.80;78.00
9919;DHT22;4998;51.024;13.828;2023-07-31T08:07:13;22.80;77.20
9919;DHT22;4998;51.024;13.828;2023-07-31T08:09:40;22.80;77.20
9919;DHT22;4998;51.024;13.828;2023-07-31T08:12:08;22.80;76.90
9919;DHT22;4998;51.024;13.828;2023-07-31T08:14:35;22.90;77.00
9919;DHT22;4998;51.024;13.828;2023-07-31T08:17:04;22.70;76.90
9919;DHT22;4998;51.024;13.828;2023-07-31T08:19:31;22.90;76.60
9919;DHT22;4998;51.024;13.828;2023-07-31T08:21:58;22.90;76.40
9919;DHT22;4998;51.024;13.828;2023-07-31T08:24:25;23.00;76.40
9919;DHT22;4998;51.024;13.828;2023-07-31T08:26:52;23.00;76.40
9919;DHT22;4998;51.024;13.828;2023-07-31T08:29:18;23.10;76.80
9919;DHT22;4998;51.024;13.828;2023-07-31T08:31:45;23.10;77.00
9919;DHT22;4998;51.024;13.828;2023-07-31T08:34:14;23.20;76.60
9919;DHT22;4998;51.024;13.828;2023-07-31T08:36:41;23.20;76.00
9919;DHT22;4998;51.024;13.828;2023-07-31T08:39:08;23.30;75.80
9919;DHT22;4998;51.024;13.828;2023-07-31T08:41:38;23.30;75.90
9919;DHT22;4998;51.024;13.828;2023-07-31T08:44:06;23.40;75.40
9919;DHT22;4998;51.024;13.828;2023-07-31T08:46:34;23.40;75.00
9919;DHT22;4998;51.024;13.828;2023-07-31T08:49:02;23.40;75.30
9919;DHT22;4998;51.024;13.828;2023-07-31T08:51:33;23.40;74.70
9919;DHT22;4998;51.024;13.828;2023-07-31T08:54:01;23.50;74.80
9919;DHT22;4998;51.024;13.828;2023-07-31T08:56:29;23.50;74.50
9919;DHT22;4998;51.024;13.828;2023-07-31T08:58:58;23.60;74.20
9919;DHT22;4998;51.024;13.828;2023-07-31T09:01:29;23.50;73.80
9919;DHT22;4998;51.024;13.828;2023-07-31T09:03:58;23.50;73.60
9919;DHT22;4998;51.024;13.828;2023-07-31T09:06:28;23.50;73.50
9919;DHT22;4998;51.024;13.828;2023-07-31T09:08:58;23.60;73.30
9919;DHT22;4998;51.024;13.828;2023-07-31T09:11:25;23.60;73.00
9919;DHT22;4998;51.024;13.828;2023-07-31T09:13:57;23.60;73.10
9919;DHT22;4998;51.024;13.828;2023-07-31T09:16:28;23.60;73.00
9919;DHT22;4998;51.024;13.828;2023-07-31T09:18:57;23.60;72.80
9919;DHT22;4998;51.024;13.828;2023-07-31T09:21:27;23.60;72.60
9919;DHT22;4998;51.024;13.828;2023-07-31T09:23:54;23.60;72.50
9919;DHT22;4998;51.024;13.828;2023-07-31T09:26:33;23.60;72.50
9919;DHT22;4998;51.024;13.828;2023-07-31T09:29:01;23.60;72.40
9919;DHT22;4998;51.024;13.828;2023-07-31T09:31:40;23.60;73.40
9919;DHT22;4998;51.024;13.828;2023-07-31T09:34:08;23.60;72.30
9919;DHT22;4998;51.024;13.828;2023-07-31T09:36:40;23.60;72.40
9919;DHT22;4998;51.024;13.828;2023-07-31T09:39:09;23.60;72.40
9919;DHT22;4998;51.024;13.828;2023-07-31T09:41:38;23.70;72.60
9919;DHT22;4998;51.024;13.828;2023-07-31T09:44:05;23.70;72.20
9919;DHT22;4998;51.024;13.828;2023-07-31T09:46:34;23.70;72.10
9919;DHT22;4998;51.024;13.828;2023-07-31T09:49:09;23.70;71.70
9919;DHT22;4998;51.024;13.828;2023-07-31T09:51:37;23.70;71.20
9919;DHT22;4998;51.024;13.828;2023-07-31T09:54:10;23.70;71.40
9919;DHT22;4998;51.024;13.828;2023-07-31T09:56:42;23.70;71.30
9919;DHT22;4998;51.024;13.828;2023-07-31T09:59:14;23.80;71.10
9919;DHT22;4998;51.024;13.828;2023-07-31T10:01:42;23.80;70.80
9919;DHT22;4998;51.024;13.828;2023-07-31T10:04:10;23.80;70.70
9919;DHT22;4998;51.024;13.828;2023-07-31T10:06:38;23.80;70.40
9919;DHT22;4998;51.024;13.828;2023-07-31T10:09:07;23.80;70.80
9919;DHT22;4998;51.024;13.828;2023-07-31T10:11:37;23.80;70.40
9919;DHT22;4998;51.024;13.828;2023-07-31T10:14:07;23.90;70.70
9919;DHT22;4998;51.024;13.828;2023-07-31T10:16:37;23.90;70.30
9919;DHT22;4998;51.024;13.828;2023-07-31T10:19:05;23.90;70.30
9919;DHT22;4998;51.024;13.828;2023-07-31T10:21:34;23.90;70.00
9919;DHT22;4998;51.024;13.828;2023-07-31T10:24:03;24.00;70.20
9919;DHT22;4998;51.024;13.828;2023-07-31T10:26:31;24.00;70.00
9919;DHT22;4998;51.024;13.828;2023-07-31T10:28:59;24.00;69.60
9919;DHT22;4998;51.024;13.828;2023-07-31T10:31:28;24.00;69.60
9919;DHT22;4998;51.024;13.828;2023-07-31T10:33:57;24.00;69.40
9919;DHT22;4998;51.024;13.828;2023-07-31T10:36:26;24.00;69.50
9919;DHT22;4998;51.024;13.828;2023-07-31T10:38:55;24.10;69.40
9919;DHT22;4998;51.024;13.828;2023-07-31T10:41:29;24.10;68.80
9919;DHT22;4998;51.024;13.828;2023-07-31T10:43:57;24.10;68.60
9919;DHT22;4998;51.024;13.828;2023-07-31T10:46:25;24.10;68.80
9919;DHT22;4998;51.024;13.828;2023-07-31T10:48:59;24.10;69.00
9919;DHT22;4998;51.024;13.828;2023-07-31T10:51:33;24.20;70.10
9919;DHT22;4998;51.024;13.828;2023-07-31T10:54:11;24.20;68.80
9919;DHT22;4998;51.024;13.828;2023-07-31T10:56:39;24.30;68.80
9919;DHT22;4998;51.024;13.828;2023-07-31T10:59:06;24.30;69.00
9919;DHT22;4998;51.024;13.828;2023-07-31T11:01:51;24.40;69.10
9919;DHT22;4998;51.024;13.828;2023-07-31T11:04:24;24.40;69.10
9919;DHT22;4998;51.024;13.828;2023-07-31T11:06:58;24.50;68.80
9919;DHT22;4998;51.024;13.828;2023-07-31T11:09:28;24.50;68.60
9919;DHT22;4998;51.024;13.828;2023-07-31T11:11:57;24.60;68.00
9919;DHT22;4998;51.024;13.828;2023-07-31T11:14:25;24.60;68.40
9919;DHT22;4998;51.024;13.828;2023-07-31T11:16:52;24.70;69.10
9919;DHT22;4998;51.024;13.828;2023-07-31T11:19:23;24.70;68.00
9919;DHT22;4998;51.024;13.828;2023-07-31T11:21:51;24.80;67.70
9919;DHT22;4998;51.024;13.828;2023-07-31T11:24:19;24.80;67.50
9919;DHT22;4998;51.024;13.828;2023-07-31T11:26:50;24.80;67.50
9919;DHT22;4998;51.024;13.828;2023-07-31T11:29:18;24.90;67.10
9919;DHT22;4998;51.024;13.828;2023-07-31T11:31:46;24.90;68.40
9919;DHT22;4998;51.024;13.828;2023-07-31T11:34:15;24.90;67.50
9919;DHT22;4998;51.024;13.828;2023-07-31T11:36:54;24.80;67.30
9919;DHT22;4998;51.024;13.828;2023-07-31T11:39:21;24.90;67.90
9919;DHT22;4998;51.024;13.828;2023-07-31T11:41:48;24.90;68.20
9919;DHT22;4998;51.024;13.828;2023-07-31T11:44:15;24.90;68.70
9919;DHT22;4998;51.024;13.828;2023-07-31T11:46:42;24.90;68.80
9919;DHT22;4998;51.024;13.828;2023-07-31T11:49:09;24.90;69.10
9919;DHT22;4998;51.024;13.828;2023-07-31T11:51:36;25.00;69.50
9919;DHT22;4998;51.024;13.828;2023-07-31T11:54:05;25.00;69.70
9919;DHT22;4998;51.024;13.828;2023-07-31T11:56:32;25.00;68.50
9919;DHT22;4998;51.024;13.828;2023-07-31T11:59:01;25.00;68.10
9919;DHT22;4998;51.024;13.828;2023-07-31T12:01:31;25.10;68.60
9919;DHT22;4998;51.024;13.828;2023-07-31T12:03:58;25.10;69.10
9919;DHT22;4998;51.024;13.828;2023-07-31T12:06:33;25.20;68.90
9919;DHT22;4998;51.024;13.828;2023-07-31T12:09:02;25.30;68.70
9919;DHT22;4998;51.024;13.828;2023-07-31T12:11:31;25.30;68.90
9919;DHT22;4998;51.024;13.828;2023-07-31T12:13:58;25.40;68.60
9919;DHT22;4998;51.024;13.828;2023-07-31T12:16:26;25.50;68.80
9919;DHT22;4998;51.024;13.828;2023-07-31T12:18:54;25.60;68.40
9919;DHT22;4998;51.024;13.828;2023-07-31T12:21:21;25.60;68.00
9919;DHT22;4998;51.024;13.828;2023-07-31T12:23:48;25.70;67.50
9919;DHT22;4998;51.024;13.828;2023-07-31T12:26:16;25.80;67.60
9919;DHT22;4998;51.024;13.828;2023-07-31T12:28:46;25.80;66.80
9919;DHT22;4998;51.024;13.828;2023-07-31T12:31:15;25.90;66.40
9919;DHT22;4998;51.024;13.828;2023-07-31T12:33:43;25.90;66.10
9919;DHT22;4998;51.024;13.828;2023-07-31T12:36:11;25.90;65.70
9919;DHT22;4998;51.024;13.828;2023-07-31T12:38:38;25.90;65.30
9919;DHT22;4998;51.024;13.828;2023-07-31T12:41:05;25.90;64.70
9919;DHT22;4998;51.024;13.828;2023-07-31T12:43:33;26.00;64.60
9919;DHT22;4998;51.024;13.828;2023-07-31T12:46:01;26.00;64.30
9919;DHT22;4998;51.024;13.828;2023-07-31T12:48:29;26.00;63.70
9919;DHT22;4998;51.024;13.828;2023-07-31T12:50:56;26.10;63.60
9919;DHT22;4998;51.024;13.828;2023-07-31T12:53:23;26.10;63.10
9919;DHT22;4998;51.024;13.828;2023-07-31T12:55:50;26.10;62.40
9919;DHT22;4998;51.024;13.828;2023-07-31T12:58:17;26.20;62.30
9919;DHT22;4998;51.024;13.828;2023-07-31T13:00:44;26.20;62.00
9919;DHT22;4998;51.024;13.828;2023-07-31T13:03:12;26.20;61.80
9919;DHT22;4998;51.024;13.828;2023-07-31T13:05:39;26.30;61.10
9919;DHT22;4998;51.024;13.828;2023-07-31T13:08:06;26.30;61.00
9919;DHT22;4998;51.024;13.828;2023-07-31T13:10:33;26.30;61.50
9919;DHT22;4998;51.024;13.828;2023-07-31T13:13:00;26.40;61.40
9919;DHT22;4998;51.024;13.828;2023-07-31T13:15:27;26.40;62.10
9919;DHT22;4998;51.024;13.828;2023-07-31T13:17:55;26.50;60.40
9919;DHT22;4998;51.024;13.828;2023-07-31T13:20:23;26.50;60.10
9919;DHT22;4998;51.024;13.828;2023-07-31T13:22:50;26.60;59.70
9919;DHT22;4998;51.024;13.828;2023-07-31T13:25:17;26.60;59.60
9919;DHT22;4998;51.024;13.828;2023-07-31T13:27:45;26.60;59.40
9919;DHT22;4998;51.024;13.828;2023-07-31T13:30:12;26.60;59.00
9919;DHT22;4998;51.024;13.828;2023-07-31T13:32:39;26.60;59.00
9919;DHT22;4998;51.024;13.828;2023-07-31T13:35:06;26.60;58.90
9919;DHT22;4998;51.024;13.828;2023-07-31T13:37:35;26.70;58.80
9919;DHT22;4998;51.024;13.828;2023-07-31T13:40:02;26.70;58.60
9919;DHT22;4998;51.024;13.828;2023-07-31T13:42:30;26.70;58.80
9919;DHT22;4998;51.024;13.828;2023-07-31T13:44:57;26.70;58.70
9919;DHT22;4998;51.024;13.828;2023-07-31T13:47:24;26.70;59.00
9919;DHT22;4998;51.024;13.828;2023-07-31T13:49:51;26.70;58.70
9919;DHT22;4998;51.024;13.828;2023-07-31T13:52:18;26.80;58.80
9919;DHT22;4998;51.024;13.828;2023-07-31T13:54:46;26.80;58.60
9919;DHT22;4998;51.024;13.828;2023-07-31T13:57:14;26.80;58.40
9919;DHT22;4998;51.024;13.828;2023-07-31T13:59:41;26.90;58.40
9919;DHT22;4998;51.024;13.828;2023-07-31T14:02:08;26.90;57.90
9919;DHT22;4998;51.024;13.828;2023-07-31T14:04:35;27.00;57.90
9919;DHT22;4998;51.024;13.828;2023-07-31T14:07:02;27.00;57.60
9919;DHT22;4998;51.024;13.828;2023-07-31T14:09:30;27.10;57.30
9919;DHT22;4998;51.024;13.828;2023-07-31T14:11:58;27.10;56.80
9919;DHT22;4998;51.024;13.828;2023-07-31T14:14:25;27.10;56.40
9919;DHT22;4998;51.024;13.828;2023-07-31T14:16:52;27.20;56.50
9919;DHT22;4998;51.024;13.828;2023-07-31T14:19:19;27.20;56.70
9919;DHT22;4998;51.024;13.828;2023-07-31T14:21:47;27.20;56.70
9919;DHT22;4998;51.024;13.828;2023-07-31T14:24:13;27.30;56.60
9919;DHT22;4998;51.024;13.828;2023-07-31T14:26:40;27.30;56.20
9919;DHT22;4998;51.024;13.828;2023-07-31T14:29:09;27.30;55.70
9919;DHT22;4998;51.024;13.828;2023-07-31T14:31:36;27.40;55.60
9919;DHT22;4998;51.024;13.828;2023-07-31T14:34:03;27.40;55.70
9919;DHT22;4998;51.024;13.828;2023-07-31T14:36:30;27.40;55.50
9919;DHT22;4998;51.024;13.828;2023-07-31T14:38:57;27.30;55.00
9919;DHT22;4998;51.024;13.828;2023-07-31T14:41:24;27.40;55.10
9919;DHT22;4998;51.024;13.828;2023-07-31T14:43:51;27.40;55.20
9919;DHT22;4998;51.024;13.828;2023-07-31T14:46:20;27.40;55.20
9919;DHT22;4998;51.024;13.828;2023-07-31T14:48:47;27.40;54.90
9919;DHT22;4998;51.024;13.828;2023-07-31T14:51:14;27.40;54.80
9919;DHT22;4998;51.024;13.828;2023-07-31T14:53:42;27.40;54.80
9919;DHT22;4998;51.024;13.828;2023-07-31T14:56:09;27.40;54.90
9919;DHT22;4998;51.024;13.828;2023-07-31T14:58:36;27.30;54.50
9919;DHT22;4998;51.024;13.828;2023-07-31T15:01:03;27.30;54.10
9919;DHT22;4998;51.024;13.828;2023-07-31T15:03:31;27.30;54.20
9919;DHT22;4998;51.024;13.828;2023-07-31T15:05:58;27.30;54.10
9919;DHT22;4998;51.024;13.828;2023-07-31T15:08:25;27.40;54.30
9919;DHT22;4998;51.024;13.828;2023-07-31T15:10:54;27.40;54.30
9919;DHT22;4998;51.024;13.828;2023-07-31T15:13:23;27.40;54.20
9919;DHT22;4998;51.024;13.828;2023-07-31T15:15:50;27.50;54.30
9919;DHT22;4998;51.024;13.828;2023-07-31T15:18:17;27.50;54.00
9919;DHT22;4998;51.024;13.828;2023-07-31T15:20:45;27.50;53.70
9919;DHT22;4998;51.024;13.828;2023-07-31T15:23:12;27.50;53.60
9919;DHT22;4998;51.024;13.828;2023-07-31T15:25:39;27.50;53.70
9919;DHT22;4998;51.024;13.828;2023-07-31T15:28:07;27.50;53.50
9919;DHT22;4998;51.024;13.828;2023-07-31T15:30:35;27.40;54.00
9919;DHT22;4998;51.024;13.828;2023-07-31T15:33:02;27.40;54.30
9919;DHT22;4998;51.024;13.828;2023-07-31T15:35:29;27.30;54.20
9919;DHT22;4998;51.024;13.828;2023-07-31T15:37:58;27.30;54.00
9919;DHT22;4998;51.024;13.828;2023-07-31T15:40:25;27.30;53.90
9919;DHT22;4998;51.024;13.828;2023-07-31T15:42:52;27.30;54.10
9919;DHT22;4998;51.024;13.828;2023-07-31T15:45:19;27.30;53.80
9919;DHT22;4998;51.024;13.828;2023-07-31T15:47:46;27.20;53.80
9919;DHT22;4998;51.024;13.828;2023-07-31T15:50:14;27.20;53.90